Time;durP1;ratioP1;P1;durP2;ratioP2;P2;SDS_P1;SDS_P2;PMS_P1;PMS_P2;Temp;Humidity;BMP_temperature;BMP_pressure;BME280_temperature;BME280_humidity;BME280_pressure;Samples;Min_cycle;Max_cycle;Signal;HPM_P1;HPM_P2
2021/07/04 00:01:57;;;;;;;3.03;2.72;;;23.60;99.90;;;;;;5071745;28;20445;-73
2021/07/04 00:04:23;;;;;;;2.72;2.50;;;23.60;99.90;;;;;;5071154;28;20410;-73
2021/07/04 00:06:49;;;;;;;3.40;2.83;;;23.60;99.90;;;;;;5071487;28;20028;-77
2021/07/04 00:09:14;;;;;;;2.72;2.53;;;23.60;99.90;;;;;;5071370;28;20021;-68
2021/07/04 00:11:40;;;;;;;2.85;2.55;;;23.60;99.90;;;;;;5071607;28;20028;-77
2021/07/04 00:14:06;;;;;;;3.10;2.80;;;23.60;99.90;;;;;;5071643;28;20392;-77
2021/07/04 00:16:31;;;;;;;2.90;2.70;;;23.60;99.90;;;;;;5071059;28;20021;-70
2021/07/04 00:18:57;;;;;;;2.75;2.50;;;23.50;99.90;;;;;;5071165;28;20040;-74
2021/07/04 00:21:23;;;;;;;3.00;2.70;;;23.60;99.90;;;;;;5070771;28;20021;-76
2021/07/04 00:23:48;;;;;;;2.95;2.65;;;23.50;99.90;;;;;;5070051;28;20040;-77
2021/07/04 00:26:14;;;;;;;2.80;2.58;;;23.60;99.90;;;;;;5071146;28;20047;-77
2021/07/04 00:28:40;;;;;;;3.03;2.60;;;23.50;99.90;;;;;;5071340;28;20021;-77
2021/07/04 00:31:05;;;;;;;2.50;2.30;;;23.50;99.90;;;;;;5071569;28;20036;-72
2021/07/04 00:33:31;;;;;;;3.30;2.72;;;23.50;99.90;;;;;;5070982;28;20021;-75
2021/07/04 00:35:57;;;;;;;3.05;2.78;;;23.50;99.90;;;;;;5071166;28;20070;-76
2021/07/04 00:38:23;;;;;;;2.75;2.55;;;23.50;99.90;;;;;;5071100;28;20365;-76
2021/07/04 00:40:49;;;;;;;2.50;2.30;;;23.50;99.90;;;;;;5071205;28;20024;-76
2021/07/04 00:43:15;;;;;;;3.95;2.38;;;23.50;99.90;;;;;;5070920;28;20028;-77
2021/07/04 00:45:41;;;;;;;3.28;2.25;;;23.40;99.90;;;;;;5070386;28;20024;-77
2021/07/04 00:48:06;;;;;;;3.30;2.65;;;23.40;99.90;;;;;;5075245;28;20024;-74
2021/07/04 00:50:32;;;;;;;2.90;2.60;;;23.40;99.90;;;;;;5074896;28;20047;-75
2021/07/04 00:53:00;;;;;;;2.90;2.60;;;23.40;99.90;;;;;;5075142;28;20107;-75
2021/07/04 00:55:26;;;;;;;3.08;2.55;;;23.40;99.90;;;;;;5074792;28;20051;-75
2021/07/04 00:57:52;;;;;;;2.60;2.40;;;23.40;99.90;;;;;;5075070;28;20087;-75
2021/07/04 01:00:22;;;;;;;2.83;2.60;;;23.40;99.90;;;;;;5074763;28;20484;-75
2021/07/04 01:02:48;;;;;;;3.83;2.80;;;23.40;99.90;;;;;;5074956;28;20024;-76
2021/07/04 01:05:16;;;;;;;2.75;2.55;;;23.40;99.90;;;;;;5074517;28;20470;-75
2021/07/04 01:07:42;;;;;;;2.60;2.40;;;23.30;99.90;;;;;;5074802;28;20025;-75
2021/07/04 01:10:10;;;;;;;2.78;2.58;;;23.40;99.90;;;;;;5073601;28;20495;-71
2021/07/04 01:12:37;;;;;;;2.72;2.53;;;23.40;99.90;;;;;;5074929;28;20027;-75
2021/07/04 01:15:05;;;;;;;2.80;2.55;;;23.30;99.90;;;;;;5074971;28;20085;-76
2021/07/04 01:17:33;;;;;;;3.28;2.50;;;23.30;99.90;;;;;;5073761;28;20021;-76
2021/07/04 01:19:59;;;;;;;2.67;2.47;;;23.30;99.90;;;;;;5074111;28;20044;-76
2021/07/04 01:22:27;;;;;;;2.33;2.13;;;23.30;99.90;;;;;;5074282;28;20032;-74
2021/07/04 01:24:54;;;;;;;2.40;2.20;;;23.30;99.90;;;;;;5074357;28;20044;-75
2021/07/04 01:27:20;;;;;;;2.67;2.47;;;23.30;99.90;;;;;;5074345;28;20021;-69
2021/07/04 01:29:46;;;;;;;2.60;2.40;;;23.30;99.90;;;;;;5074366;28;20473;-67
2021/07/04 01:32:11;;;;;;;2.38;2.17;;;23.30;99.90;;;;;;5073982;28;20016;-70
2021/07/04 01:34:37;;;;;;;2.72;2.53;;;23.30;99.90;;;;;;5074614;28;20023;-70
2021/07/04 01:37:03;;;;;;;2.88;2.40;;;23.30;99.90;;;;;;5074510;28;20032;-68
2021/07/04 01:39:29;;;;;;;2.80;2.60;;;23.20;99.90;;;;;;5074017;28;20434;-72
2021/07/04 01:41:55;;;;;;;3.00;2.30;;;23.30;99.90;;;;;;5074169;28;20388;-71
2021/07/04 01:44:21;;;;;;;4.00;2.60;;;23.20;99.90;;;;;;5073852;28;20047;-70
2021/07/04 01:46:47;;;;;;;3.13;2.58;;;23.20;99.90;;;;;;5073768;28;20498;-68
2021/07/04 01:49:12;;;;;;;3.05;2.72;;;23.20;99.90;;;;;;5073799;28;20027;-71
2021/07/04 01:51:38;;;;;;;2.58;2.38;;;23.20;99.90;;;;;;5074019;28;20025;-67
2021/07/04 01:54:04;;;;;;;2.42;2.22;;;23.20;99.90;;;;;;5074290;28;20115;-70
2021/07/04 01:56:29;;;;;;;2.40;2.20;;;23.20;99.90;;;;;;5072964;28;20025;-74
2021/07/04 01:58:55;;;;;;;2.50;2.30;;;23.20;99.90;;;;;;5073877;28;20024;-73
2021/07/04 02:01:21;;;;;;;2.70;2.28;;;23.20;99.90;;;;;;5073467;28;20020;-75
2021/07/04 02:03:46;;;;;;;2.47;2.28;;;23.10;99.90;;;;;;5073368;28;20442;-76
2021/07/04 02:06:12;;;;;;;2.78;2.38;;;23.20;99.90;;;;;;5073849;28;20473;-74
2021/07/04 02:08:38;;;;;;;2.75;2.03;;;23.20;99.90;;;;;;5073858;28;20085;-70
2021/07/04 02:11:04;;;;;;;2.58;2.38;;;23.10;99.90;;;;;;5073991;28;20035;-75
2021/07/04 02:13:30;;;;;;;2.50;2.30;;;23.10;99.90;;;;;;5073339;28;20024;-74
2021/07/04 02:15:56;;;;;;;2.40;2.20;;;23.10;99.90;;;;;;5073399;28;20469;-71
2021/07/04 02:18:22;;;;;;;2.60;2.20;;;23.10;99.90;;;;;;5072802;28;20032;-75
2021/07/04 02:20:49;;;;;;;2.80;2.30;;;23.10;99.90;;;;;;5073237;28;20071;-74
2021/07/04 02:23:19;;;;;;;2.63;2.08;;;23.10;99.90;;;;;;5072690;28;20392;-74
2021/07/04 02:25:47;;;;;;;2.50;2.30;;;23.00;99.90;;;;;;5073141;28;20074;-74
2021/07/04 02:28:16;;;;;;;2.50;2.30;;;23.00;99.90;;;;;;5072143;28;20369;-74
2021/07/04 02:30:42;;;;;;;2.60;2.38;;;23.10;99.90;;;;;;5073243;28;20162;-73
2021/07/04 02:33:09;;;;;;;2.70;2.50;;;23.00;99.90;;;;;;5073411;28;20107;-69
2021/07/04 02:35:37;;;;;;;3.10;2.20;;;23.00;99.90;;;;;;5073620;28;20039;-75
2021/07/04 02:38:05;;;;;;;2.40;2.20;;;23.00;99.90;;;;;;5073369;28;20033;-75
2021/07/04 02:40:30;;;;;;;2.45;2.25;;;23.10;99.90;;;;;;5072837;28;20112;-75
2021/07/04 02:42:56;;;;;;;2.83;2.25;;;23.00;99.90;;;;;;5072738;28;20159;-74
2021/07/04 02:45:23;;;;;;;3.00;2.30;;;23.00;99.90;;;;;;5072613;28;20037;-75
2021/07/04 02:47:49;;;;;;;2.38;2.17;;;23.00;99.90;;;;;;5072927;28;20021;-75
2021/07/04 02:50:15;;;;;;;2.78;2.35;;;23.00;99.90;;;;;;5072609;28;20116;-75
2021/07/04 02:52:40;;;;;;;3.00;2.63;;;23.00;99.90;;;;;;5072667;28;20020;-75
2021/07/04 02:55:08;;;;;;;4.38;2.35;;;23.00;99.90;;;;;;5073057;28;20487;-75
2021/07/04 02:57:34;;;;;;;3.05;2.60;;;23.00;99.90;;;;;;5072937;28;20021;-75
2021/07/04 03:00:00;;;;;;;2.65;2.45;;;23.00;99.90;;;;;;5072734;28;20025;-72
2021/07/04 03:02:26;;;;;;;2.40;2.20;;;23.00;99.90;;;;;;5072123;28;20075;-70
2021/07/04 03:04:52;;;;;;;2.35;2.15;;;22.90;99.90;;;;;;5072417;28;20422;-74
2021/07/04 03:07:19;;;;;;;2.50;2.30;;;22.90;99.90;;;;;;5072430;28;20032;-72
2021/07/04 03:09:44;;;;;;;2.70;2.50;;;22.90;99.90;;;;;;5071632;28;20028;-74
2021/07/04 03:12:11;;;;;;;2.60;2.40;;;22.90;99.90;;;;;;5071988;28;20020;-74
2021/07/04 03:14:36;;;;;;;2.50;2.30;;;22.90;99.90;;;;;;5072675;28;20036;-73
2021/07/04 03:17:03;;;;;;;3.50;2.67;;;22.90;99.90;;;;;;5072338;28;20021;-73
2021/07/04 03:19:29;;;;;;;2.47;2.28;;;22.90;99.90;;;;;;5072108;28;20025;-73
2021/07/04 03:21:55;;;;;;;2.60;2.40;;;22.90;99.90;;;;;;5072469;28;20471;-75
2021/07/04 03:24:20;;;;;;;2.67;2.40;;;22.90;99.90;;;;;;5071749;28;20042;-68
2021/07/04 03:26:46;;;;;;;2.35;2.17;;;22.90;99.90;;;;;;5070945;28;20017;-72
2021/07/04 03:29:12;;;;;;;2.50;2.30;;;22.80;99.90;;;;;;5072017;28;20465;-73
2021/07/04 03:31:38;;;;;;;3.20;2.60;;;22.90;99.90;;;;;;5072120;28;20388;-73
2021/07/04 03:34:03;;;;;;;3.60;2.30;;;22.80;99.90;;;;;;5072243;28;20032;-73
2021/07/04 03:36:29;;;;;;;3.08;2.60;;;22.90;99.90;;;;;;5072128;28;20439;-73
2021/07/04 03:38:55;;;;;;;2.70;2.50;;;22.80;99.90;;;;;;5071982;28;20534;-73
2021/07/04 03:41:20;;;;;;;2.42;2.20;;;22.80;99.90;;;;;;5071821;28;20017;-73
2021/07/04 03:43:46;;;;;;;2.70;2.50;;;22.80;99.90;;;;;;5071003;28;20031;-73
2021/07/04 03:46:12;;;;;;;3.10;2.40;;;22.80;99.90;;;;;;5071614;28;20519;-74
2021/07/04 03:48:37;;;;;;;2.78;2.58;;;22.80;99.90;;;;;;5071880;28;20013;-74
2021/07/04 03:51:03;;;;;;;2.72;2.28;;;22.80;99.90;;;;;;5071660;28;20472;-74
2021/07/04 03:53:29;;;;;;;2.63;2.42;;;22.80;99.90;;;;;;5071719;28;20589;-75
2021/07/04 03:55:54;;;;;;;2.90;2.58;;;22.80;99.90;;;;;;5071426;28;20028;-75
2021/07/04 03:58:20;;;;;;;2.53;2.33;;;22.80;99.90;;;;;;5071641;28;20428;-74
2021/07/04 04:00:45;;;;;;;2.47;2.20;;;22.70;99.90;;;;;;5071237;28;20024;-74
2021/07/04 04:03:11;;;;;;;2.95;2.50;;;22.80;99.90;;;;;;5071667;28;20101;-73
2021/07/04 04:05:37;;;;;;;3.05;2.60;;;22.80;99.90;;;;;;5071501;28;20370;-74
2021/07/04 04:08:06;;;;;;;2.65;2.45;;;22.70;99.90;;;;;;5071506;28;20029;-73
2021/07/04 04:10:32;;;;;;;2.65;2.40;;;22.70;99.90;;;;;;5071090;28;20104;-74
2021/07/04 04:12:57;;;;;;;2.67;2.47;;;22.80;99.90;;;;;;5071134;28;20108;-75
2021/07/04 04:15:23;;;;;;;2.67;2.42;;;22.80;99.90;;;;;;5071137;28;20039;-74
2021/07/04 04:17:49;;;;;;;3.03;2.55;;;22.80;99.90;;;;;;5071251;28;20094;-73
2021/07/04 04:20:15;;;;;;;3.00;2.70;;;22.70;99.90;;;;;;5071263;28;20021;-74
2021/07/04 04:22:40;;;;;;;3.08;2.47;;;22.70;99.90;;;;;;5071173;28;20025;-71
2021/07/04 04:25:07;;;;;;;3.03;2.13;;;22.70;99.90;;;;;;5071346;28;20041;-74
2021/07/04 04:27:32;;;;;;;2.58;2.25;;;22.70;99.90;;;;;;5071225;28;20024;-73
2021/07/04 04:29:58;;;;;;;4.07;2.42;;;22.70;99.90;;;;;;5071419;28;20024;-74
2021/07/04 04:32:23;;;;;;;2.72;2.53;;;22.70;99.90;;;;;;5071216;28;20027;-74
2021/07/04 04:34:49;;;;;;;2.53;2.28;;;22.70;99.90;;;;;;5070904;28;20124;-73
2021/07/04 04:37:15;;;;;;;2.30;2.10;;;22.70;99.90;;;;;;5071191;28;20077;-74
2021/07/04 04:39:41;;;;;;;2.72;2.33;;;22.70;99.90;;;;;;5070967;28;20032;-69
2021/07/04 04:42:07;;;;;;;2.55;2.35;;;22.70;99.90;;;;;;5070979;28;20376;-73
2021/07/04 04:44:33;;;;;;;2.85;2.60;;;22.70;99.90;;;;;;5070563;28;20037;-70
2021/07/04 04:46:59;;;;;;;3.03;2.30;;;22.70;99.90;;;;;;5071115;28;20028;-73
2021/07/04 04:49:25;;;;;;;2.50;2.30;;;22.70;99.90;;;;;;5071106;28;20034;-72
2021/07/04 04:51:50;;;;;;;3.13;2.55;;;22.70;99.90;;;;;;5070838;28;20036;-70
2021/07/04 04:54:16;;;;;;;2.45;2.15;;;22.70;99.90;;;;;;5071008;28;20060;-71
2021/07/04 04:56:41;;;;;;;2.50;2.20;;;22.60;99.90;;;;;;5071135;28;20083;-70
2021/07/04 04:59:07;;;;;;;4.25;2.50;;;22.70;99.90;;;;;;5071572;28;20100;-73
2021/07/04 05:01:33;;;;;;;3.55;2.60;;;22.70;99.90;;;;;;5070310;28;20035;-70
2021/07/04 05:03:58;;;;;;;2.95;2.40;;;22.70;99.90;;;;;;5070842;28;20029;-72
2021/07/04 05:06:24;;;;;;;2.33;2.00;;;22.60;99.90;;;;;;5070783;28;20029;-72
2021/07/04 05:08:50;;;;;;;2.72;2.50;;;22.60;99.90;;;;;;5070603;28;20024;-72
2021/07/04 05:11:17;;;;;;;3.38;2.72;;;22.60;99.90;;;;;;5070855;28;20107;-72
2021/07/04 05:13:42;;;;;;;3.22;2.35;;;22.60;99.90;;;;;;5070212;28;20095;-69
2021/07/04 05:16:08;;;;;;;2.78;2.47;;;22.60;99.90;;;;;;5071036;28;20060;-72
2021/07/04 05:18:35;;;;;;;3.63;2.35;;;22.60;99.90;;;;;;5070581;28;20118;-71
2021/07/04 05:21:02;;;;;;;4.38;2.50;;;22.60;99.90;;;;;;5070840;28;20493;-73
2021/07/04 05:23:28;;;;;;;2.40;2.20;;;22.60;99.90;;;;;;5070638;28;20476;-71
2021/07/04 05:25:56;;;;;;;2.60;2.38;;;22.60;99.90;;;;;;5070323;28;20097;-72
2021/07/04 05:28:22;;;;;;;4.05;2.63;;;22.60;99.90;;;;;;5070721;28;20063;-72
2021/07/04 05:30:49;;;;;;;2.60;2.40;;;22.60;99.90;;;;;;5070422;28;20093;-71
2021/07/04 05:33:14;;;;;;;3.15;2.53;;;22.60;99.90;;;;;;5073513;28;20032;-72
2021/07/04 05:35:40;;;;;;;3.47;2.38;;;22.60;99.90;;;;;;5074254;28;20028;-72
2021/07/04 05:38:11;;;;;;;4.95;2.25;;;22.60;99.90;;;;;;5074113;28;20021;-72
2021/07/04 05:40:36;;;;;;;2.40;2.20;;;22.60;99.90;;;;;;5074043;28;20377;-71
2021/07/04 05:43:02;;;;;;;2.75;2.40;;;22.60;99.90;;;;;;5073786;28;20020;-72
2021/07/04 05:45:28;;;;;;;2.60;2.40;;;22.60;99.90;;;;;;5074041;28;20042;-72
2021/07/04 05:47:54;;;;;;;2.90;2.38;;;22.60;99.90;;;;;;5073638;28;20107;-72
2021/07/04 05:50:20;;;;;;;2.80;2.45;;;22.60;99.90;;;;;;5073784;28;20052;-72
2021/07/04 05:52:46;;;;;;;3.25;2.38;;;22.60;99.90;;;;;;5073248;28;20056;-72
2021/07/04 05:55:13;;;;;;;3.13;2.50;;;22.60;99.90;;;;;;5074373;28;20029;-72
2021/07/04 05:57:39;;;;;;;4.25;2.50;;;22.60;99.90;;;;;;5074081;28;20074;-70
2021/07/04 06:00:08;;;;;;;3.92;2.42;;;22.60;99.90;;;;;;5073874;28;20451;-70
2021/07/04 06:02:33;;;;;;;2.63;2.28;;;22.60;99.90;;;;;;5073657;28;20024;-70
2021/07/04 06:04:59;;;;;;;2.70;2.40;;;22.50;99.90;;;;;;5073780;28;20553;-70
2021/07/04 06:07:24;;;;;;;2.47;2.17;;;22.50;99.90;;;;;;5073922;28;20053;-70
2021/07/04 06:09:50;;;;;;;4.20;2.55;;;22.50;99.90;;;;;;5073580;28;20040;-70
2021/07/04 06:12:16;;;;;;;2.65;2.30;;;22.60;99.90;;;;;;5073420;28;20103;-71
2021/07/04 06:14:41;;;;;;;3.45;2.38;;;22.50;99.90;;;;;;5073823;28;20077;-70
2021/07/04 06:17:07;;;;;;;2.80;2.35;;;22.60;99.90;;;;;;5073597;28;20023;-71
2021/07/04 06:19:33;;;;;;;2.67;2.00;;;22.60;99.90;;;;;;5073290;28;20490;-69
2021/07/04 06:21:58;;;;;;;2.60;2.20;;;22.60;99.90;;;;;;5073573;28;20021;-72
2021/07/04 06:24:24;;;;;;;2.50;2.30;;;22.50;99.90;;;;;;5073317;28;20028;-69
2021/07/04 06:26:50;;;;;;;3.88;2.42;;;22.60;99.90;;;;;;5073271;28;20106;-69
2021/07/04 06:29:16;;;;;;;3.33;2.20;;;22.60;99.90;;;;;;5073400;28;20025;-69
2021/07/04 06:31:42;;;;;;;2.35;2.05;;;22.60;99.90;;;;;;5073538;28;20056;-69
2021/07/04 06:34:07;;;;;;;2.38;1.95;;;22.60;99.90;;;;;;5073221;28;20184;-70
2021/07/04 06:36:33;;;;;;;2.40;2.20;;;22.60;99.90;;;;;;5072921;28;20388;-69
2021/07/04 06:38:58;;;;;;;2.25;1.73;;;22.60;99.90;;;;;;5073179;28;20056;-69
2021/07/04 06:41:25;;;;;;;2.10;1.92;;;22.50;99.90;;;;;;5072163;28;20048;-69
2021/07/04 06:43:51;;;;;;;2.38;1.95;;;22.60;99.90;;;;;;5056142;28;20511;-72
2021/07/04 06:46:17;;;;;;;2.88;1.75;;;22.60;99.90;;;;;;5051592;28;20037;-67
2021/07/04 06:48:43;;;;;;;4.05;1.85;;;22.60;99.90;;;;;;5053097;28;20048;-65
2021/07/04 06:51:09;;;;;;;8.30;2.10;;;22.60;99.90;;;;;;5051538;28;20025;-67
2021/07/04 06:53:36;;;;;;;5.85;1.83;;;22.60;99.90;;;;;;5052741;28;20104;-66
2021/07/04 06:56:03;;;;;;;5.32;2.08;;;22.60;99.90;;;;;;5052773;28;20431;-67
2021/07/04 06:58:28;;;;;;;2.90;1.70;;;22.60;99.90;;;;;;5052801;28;20124;-65
2021/07/04 07:00:54;;;;;;;3.55;1.65;;;22.60;99.90;;;;;;5052467;28;20440;-65
2021/07/04 07:03:20;;;;;;;6.20;1.83;;;22.60;99.90;;;;;;5051987;28;20484;-66
2021/07/04 07:05:45;;;;;;;9.43;2.22;;;22.60;99.90;;;;;;5051464;28;20037;-66
2021/07/04 07:08:11;;;;;;;5.82;2.15;;;22.60;99.90;;;;;;5059871;28;20019;-69
2021/07/04 07:10:37;;;;;;;3.83;2.40;;;22.70;99.90;;;;;;5074680;28;20056;-68
2021/07/04 07:13:06;;;;;;;8.38;2.75;;;22.70;99.90;;;;;;5071922;28;20020;-67
2021/07/04 07:15:32;;;;;;;9.80;3.08;;;22.70;99.90;;;;;;5071866;28;20032;-68
2021/07/04 07:17:57;;;;;;;6.57;3.60;;;22.70;99.90;;;;;;5071431;28;20017;-68
2021/07/04 07:20:24;;;;;;;7.20;3.90;;;22.70;99.90;;;;;;5071847;28;20028;-67
2021/07/04 07:22:50;;;;;;;7.00;4.03;;;22.70;99.90;;;;;;5079682;28;20030;-67
2021/07/04 07:25:17;;;;;;;7.25;3.80;;;22.70;99.90;;;;;;5069077;28;20041;-71
2021/07/04 07:27:42;;;;;;;8.90;4.32;;;22.70;99.90;;;;;;5070314;28;20044;-71
2021/07/04 07:30:10;;;;;;;5.05;4.30;;;22.70;99.90;;;;;;5072124;28;20118;-73
2021/07/04 07:32:36;;;;;;;6.15;4.07;;;22.70;99.90;;;;;;5058716;28;20032;-73
2021/07/04 07:35:07;;;;;;;4.30;3.90;;;22.60;99.90;;;;;;5066780;28;20354;-69
2021/07/04 07:37:33;;;;;;;6.28;4.45;;;22.60;99.90;;;;;;5067257;28;20029;-74
2021/07/04 07:39:59;;;;;;;5.93;3.40;;;22.60;99.90;;;;;;5070154;28;20473;-68
2021/07/04 07:42:25;;;;;;;4.00;3.33;;;22.60;99.90;;;;;;5061140;28;20094;-69
2021/07/04 07:44:51;;;;;;;3.65;3.15;;;22.60;99.90;;;;;;5051410;28;20033;-69
2021/07/04 07:47:16;;;;;;;3.90;3.10;;;22.50;99.90;;;;;;5062895;28;20032;-71
2021/07/04 07:49:42;;;;;;;3.97;3.13;;;22.50;99.90;;;;;;5070616;28;20033;-70
2021/07/04 07:52:09;;;;;;;4.57;3.13;;;22.40;99.90;;;;;;5068655;28;20043;-70
2021/07/04 07:54:36;;;;;;;4.18;2.95;;;22.40;99.90;;;;;;5050757;28;20376;-69
2021/07/04 07:57:02;;;;;;;3.28;2.83;;;22.40;99.90;;;;;;5056151;28;20043;-69
2021/07/04 07:59:31;;;;;;;4.30;2.83;;;22.40;99.90;;;;;;5070936;28;20020;-69
2021/07/04 08:01:57;;;;;;;8.30;2.63;;;22.50;99.90;;;;;;5068613;28;20048;-69
2021/07/04 08:04:23;;;;;;;5.65;2.47;;;22.50;99.90;;;;;;5060539;28;20033;-69
2021/07/04 08:06:49;;;;;;;2.70;2.17;;;22.50;99.90;;;;;;5069125;28;20031;-69
2021/07/04 08:09:14;;;;;;;2.90;1.98;;;22.50;99.90;;;;;;5051833;28;20021;-69
2021/07/04 08:11:40;;;;;;;4.85;2.55;;;22.50;99.90;;;;;;5067302;28;20357;-69
2021/07/04 08:14:06;;;;;;;4.97;2.40;;;22.50;99.90;;;;;;5071518;28;20530;-70
2021/07/04 08:16:32;;;;;;;9.25;2.80;;;22.50;99.90;;;;;;5066562;28;20025;-70
2021/07/04 08:18:58;;;;;;;3.33;2.35;;;22.50;99.90;;;;;;5071263;28;20510;-70
2021/07/04 08:21:24;;;;;;;6.95;2.33;;;22.50;99.90;;;;;;5057628;28;20063;-70
2021/07/04 08:23:50;;;;;;;4.63;2.63;;;22.50;99.90;;;;;;5059672;28;20037;-70
2021/07/04 08:26:16;;;;;;;4.53;2.22;;;22.50;99.90;;;;;;5071562;28;20047;-70
2021/07/04 08:28:41;;;;;;;5.07;2.00;;;22.50;99.90;;;;;;5071216;28;20039;-70
2021/07/04 08:31:07;;;;;;;4.78;1.92;;;22.50;99.90;;;;;;5056843;28;20021;-70
2021/07/04 08:33:33;;;;;;;3.97;2.17;;;22.50;99.90;;;;;;5068425;28;20024;-67
2021/07/04 08:35:58;;;;;;;6.03;2.42;;;22.50;99.90;;;;;;5061301;28;20381;-68
2021/07/04 08:38:24;;;;;;;3.65;1.83;;;22.50;99.90;;;;;;5051034;28;20095;-68
2021/07/04 08:40:50;;;;;;;5.38;2.40;;;22.50;99.90;;;;;;5059701;28;20087;-66
2021/07/04 08:43:33;;;;;;;6.22;2.20;;;22.60;99.90;;;;;;5054929;28;20087;-67
2021/07/04 08:45:59;;;;;;;4.63;1.67;;;22.50;99.90;;;;;;5062000;28;20037;-66
2021/07/04 08:48:25;;;;;;;3.47;1.90;;;22.50;99.90;;;;;;5070590;28;20029;-63
2021/07/04 08:50:52;;;;;;;4.35;2.05;;;22.50;99.90;;;;;;5070512;28;20043;-61
2021/07/04 08:53:18;;;;;;;5.43;2.30;;;22.60;99.90;;;;;;5070202;28;20063;-66
2021/07/04 08:55:44;;;;;;;3.30;1.83;;;22.50;99.90;;;;;;5063281;28;20053;-61
2021/07/04 08:58:10;;;;;;;5.95;2.00;;;22.50;99.90;;;;;;5070307;28;20032;-63
2021/07/04 09:00:37;;;;;;;3.22;1.70;;;22.50;99.90;;;;;;5070692;28;20029;-61
2021/07/04 09:03:39;;;;;;;5.07;2.10;;;22.50;99.90;;;;;;5056204;28;20032;-65
2021/07/04 09:06:05;;;;;;;5.25;1.90;;;22.50;99.90;;;;;;5010030;28;20255;-63
2021/07/04 09:08:31;;;;;;;5.35;2.00;;;22.50;99.90;;;;;;5046178;28;20389;-64
2021/07/04 09:11:11;;;;;;;5.45;2.05;;;22.50;99.90;;;;;;5072269;28;20032;-68
2021/07/04 09:13:38;;;;;;;2.92;1.75;;;22.40;99.90;;;;;;5054687;28;20024;-64
2021/07/04 09:16:06;;;;;;;4.65;1.92;;;22.50;99.90;;;;;;5056769;28;20067;-66
2021/07/04 09:18:31;;;;;;;4.93;2.00;;;22.50;99.90;;;;;;5072025;28;20017;-61
2021/07/04 09:20:57;;;;;;;5.20;1.75;;;22.50;99.90;;;;;;5074417;28;20020;-64
2021/07/04 09:23:36;;;;;;;7.55;2.15;;;22.50;99.90;;;;;;5073767;28;20520;-61
2021/07/04 09:26:02;;;;;;;3.60;1.95;;;22.40;99.90;;;;;;5072532;28;20060;-74
2021/07/04 09:28:28;;;;;;;5.47;1.88;;;22.40;99.90;;;;;;5074438;28;20027;-66
2021/07/04 09:30:56;;;;;;;3.38;1.58;;;22.40;99.90;;;;;;5074110;28;20139;-68
2021/07/04 09:33:33;;;;;;;3.00;1.70;;;22.40;99.90;;;;;;5067385;28;20024;-69
2021/07/04 09:36:07;;;;;;;3.75;1.52;;;22.40;99.90;;;;;;5073795;28;20392;-72
2021/07/04 09:38:39;;;;;;;4.40;1.80;;;22.40;99.90;;;;;;5074250;28;20369;-71
2021/07/04 09:41:07;;;;;;;3.95;1.70;;;22.40;99.90;;;;;;5073477;28;20054;-72
2021/07/04 09:43:34;;;;;;;4.00;1.58;;;22.40;99.90;;;;;;5073437;28;20446;-72
2021/07/04 09:46:05;;;;;;;4.78;1.60;;;22.40;99.90;;;;;;5070997;28;20040;-78
2021/07/04 09:48:31;;;;;;;3.83;1.40;;;22.40;99.90;;;;;;5073738;28;20073;-81
2021/07/04 09:50:58;;;;;;;5.68;1.38;;;22.40;99.90;;;;;;5074243;28;20472;-82
2021/07/04 09:53:31;;;;;;;4.40;1.00;;;22.30;99.90;;;;;;5073998;28;20012;-73
2021/07/04 09:56:07;;;;;;;2.80;1.20;;;22.20;99.90;;;;;;5067589;28;20040;-78
2021/07/04 09:58:34;;;;;;;2.70;1.08;;;22.20;99.90;;;;;;5053685;28;20274;-82
2021/07/04 10:01:00;;;;;;;3.03;0.93;;;22.20;99.90;;;;;;5054616;28;20033;-80
2021/07/04 10:03:26;;;;;;;2.83;0.70;;;22.20;99.90;;;;;;5058151;28;20105;-78
2021/07/04 10:05:54;;;;;;;5.60;1.00;;;22.20;99.90;;;;;;5053734;28;20536;-76
2021/07/04 10:08:27;;;;;;;3.83;1.00;;;22.20;99.90;;;;;;5054023;28;20017;-76
2021/07/04 10:10:59;;;;;;;2.53;0.90;;;22.20;99.90;;;;;;5065151;28;20040;-80
2021/07/04 10:13:25;;;;;;;2.40;1.10;;;22.20;99.90;;;;;;5060911;28;20028;-69
2021/07/04 10:15:51;;;;;;;2.03;0.80;;;22.20;99.90;;;;;;5053404;28;20040;-82
2021/07/04 10:18:18;;;;;;;3.13;1.00;;;22.20;99.90;;;;;;5062545;28;20025;-75
2021/07/04 10:20:44;;;;;;;3.88;1.00;;;22.20;99.90;;;;;;5073454;28;20025;-73
2021/07/04 10:23:13;;;;;;;3.67;1.10;;;22.20;99.90;;;;;;5072414;28;20032;-69
2021/07/04 10:25:41;;;;;;;2.40;0.90;;;22.20;99.90;;;;;;5072921;28;20041;-73
2021/07/04 10:28:09;;;;;;;2.33;1.08;;;22.20;99.90;;;;;;5072886;28;20507;-75
2021/07/04 10:30:34;;;;;;;2.40;1.15;;;22.20;99.90;;;;;;5071103;28;20040;-74
2021/07/04 10:33:26;;;;;;;3.88;0.90;;;22.10;99.90;;;;;;5062918;28;20021;-72
2021/07/04 10:36:24;;;;;;;1.65;0.80;;;22.10;99.90;;;;;;5065137;28;20039;-75
2021/07/04 10:38:56;;;;;;;2.28;0.80;;;22.10;99.90;;;;;;5073112;28;20124;-71
2021/07/04 10:41:30;;;;;;;2.05;0.90;;;22.10;99.90;;;;;;5065884;28;20027;-74
2021/07/04 10:43:57;;;;;;;2.03;0.73;;;22.10;99.90;;;;;;5072407;28;20029;-74
2021/07/04 10:46:42;;;;;;;2.22;0.90;;;22.00;99.90;;;;;;5072972;28;20082;-74
2021/07/04 10:49:18;;;;;;;1.83;0.95;;;22.00;99.90;;;;;;5066737;28;20029;-74
2021/07/04 10:52:03;;;;;;;3.53;0.93;;;22.00;99.90;;;;;;5067048;28;20035;-74
2021/07/04 10:54:45;;;;;;;2.47;1.00;;;22.00;99.90;;;;;;5072748;28;20028;-74
2021/07/04 10:57:30;;;;;;;2.75;1.02;;;22.00;99.90;;;;;;5072009;28;20484;-72
2021/07/04 11:00:02;;;;;;;3.40;1.10;;;22.00;99.90;;;;;;5067650;28;20431;-74
2021/07/04 11:02:50;;;;;;;2.33;1.05;;;21.90;99.90;;;;;;5059735;28;20029;-75
2021/07/04 11:05:35;;;;;;;2.45;1.00;;;21.90;99.90;;;;;;5070832;28;20566;-74
2021/07/04 11:08:21;;;;;;;2.45;0.68;;;21.90;99.90;;;;;;5060997;28;20107;-73
2021/07/04 11:10:49;;;;;;;1.88;0.75;;;21.90;99.90;;;;;;5053216;28;20025;-75
2021/07/04 11:13:15;;;;;;;2.00;0.68;;;21.90;99.90;;;;;;5052425;28;20057;-74
2021/07/04 11:16:03;;;;;;;1.60;0.60;;;21.90;99.90;;;;;;5051887;28;20529;-70
2021/07/04 11:18:41;;;;;;;1.98;1.10;;;22.00;99.90;;;;;;5065440;28;20037;-75
2021/07/04 11:21:07;;;;;;;1.27;0.63;;;22.00;99.90;;;;;;5061730;28;20472;-72
2021/07/04 11:23:33;;;;;;;2.67;1.00;;;21.90;99.90;;;;;;5071574;28;20024;-74
2021/07/04 11:26:06;;;;;;;2.10;1.00;;;21.90;99.90;;;;;;5066200;28;20481;-69
2021/07/04 11:28:34;;;;;;;1.25;0.60;;;21.90;99.90;;;;;;5051923;28;20108;-71
2021/07/04 11:31:05;;;;;;;2.03;0.57;;;21.90;99.90;;;;;;5051307;28;20036;-74
2021/07/04 11:33:38;;;;;;;1.42;0.60;;;21.90;99.90;;;;;;5059276;28;20032;-69
2021/07/04 11:36:04;;;;;;;;;;;21.90;99.90;;;;;;5052667;28;20037;-66
2021/07/04 11:38:33;;;;;;;0.90;0.60;;;21.90;99.90;;;;;;5051981;28;20432;-73
2021/07/04 11:41:00;;;;;;;1.63;0.50;;;21.90;99.90;;;;;;5064948;28;20447;-74
2021/07/04 11:43:27;;;;;;;2.13;0.60;;;21.90;99.90;;;;;;5066186;28;20043;-66
2021/07/04 11:45:56;;;;;;;1.42;0.50;;;22.00;99.90;;;;;;5070980;28;20043;-72
2021/07/04 11:48:45;;;;;;;1.58;0.60;;;22.00;99.90;;;;;;5070226;28;20025;-70
2021/07/04 11:51:53;;;;;;;2.97;0.60;;;22.10;99.90;;;;;;5062564;28;20028;-74
2021/07/04 11:54:23;;;;;;;1.05;0.57;;;22.10;99.90;;;;;;5035037;28;20128;-72
2021/07/04 11:56:50;;;;;;;2.78;0.50;;;22.20;99.90;;;;;;5051279;28;20071;-72
2021/07/04 11:59:17;;;;;;;2.55;0.60;;;22.20;99.90;;;;;;5053503;28;20037;-71
2021/07/04 12:01:55;;;;;;;1.10;0.60;;;22.20;99.90;;;;;;5051479;28;20029;-70
2021/07/04 12:04:33;;;;;;;1.30;0.70;;;22.20;99.90;;;;;;5057230;28;20041;-70
2021/07/04 12:07:03;;;;;;;2.55;0.80;;;22.30;99.90;;;;;;5052496;28;20048;-73
2021/07/04 12:09:53;;;;;;;1.63;0.85;;;22.30;99.90;;;;;;5051233;28;20029;-66
2021/07/04 12:12:22;;;;;;;2.30;0.70;;;22.30;99.90;;;;;;5051209;28;20033;-67
2021/07/04 12:14:53;;;;;;;1.20;0.50;;;22.30;99.90;;;;;;5051150;28;20029;-69
2021/07/04 12:17:28;;;;;;;3.83;0.80;;;22.30;99.90;;;;;;5072948;28;20074;-73
2021/07/04 12:20:09;;;;;;;1.80;0.70;;;22.30;99.90;;;;;;5066487;28;20032;-74
2021/07/04 12:22:43;;;;;;;3.45;1.00;;;22.30;99.90;;;;;;5051128;28;20078;-65
2021/07/04 12:25:18;;;;;;;1.85;0.70;;;22.30;99.90;;;;;;5050995;28;20037;-67
2021/07/04 12:27:43;;;;;;;1.30;0.70;;;22.40;99.90;;;;;;5051878;28;20040;-65
2021/07/04 12:30:14;;;;;;;4.10;0.82;;;22.40;99.90;;;;;;5051273;28;20029;-64
2021/07/04 12:32:42;;;;;;;2.88;0.68;;;22.40;99.90;;;;;;5053556;28;20033;-65
2021/07/04 12:35:18;;;;;;;1.27;0.70;;;22.40;99.90;;;;;;5051781;28;20025;-67
2021/07/04 12:37:44;;;;;;;2.45;0.70;;;22.40;99.90;;;;;;5050993;28;20393;-65
2021/07/04 12:40:09;;;;;;;2.88;0.90;;;22.40;99.90;;;;;;5053864;28;20508;-68
2021/07/04 12:42:36;;;;;;;2.17;0.60;;;22.40;99.90;;;;;;5074757;28;20063;-67
2021/07/04 12:45:08;;;;;;;1.98;0.70;;;22.40;99.90;;;;;;5073555;28;20472;-68
2021/07/04 12:47:34;;;;;;;0.70;0.55;;;22.40;99.90;;;;;;5070247;28;20424;-68
2021/07/04 12:50:20;;;;;;;2.10;0.70;;;22.50;99.90;;;;;;5064264;28;20086;-67
2021/07/04 12:52:57;;;;;;;3.22;0.88;;;22.50;99.90;;;;;;5074648;28;20040;-68